Time;durP1;ratioP1;P1;durP2;ratioP2;P2;SDS_P1;SDS_P2;PMS_P1;PMS_P2;Temp;Humidity;BMP_temperature;BMP_pressure;BME280_temperature;BME280_humidity;BME280_pressure;Samples;Min_cycle;Max_cycle;Signal;HPM_P1;HPM_P2
2023/11/05 00:02:17;;;;;;;;;;;;;;;17.06;47.12;99745.34;5097660;28;1202;-40
2023/11/05 00:04:43;;;;;;;;;;;;;;;16.81;46.08;99733.66;5083882;28;1135;-43
2023/11/05 00:07:08;;;;;;;;;;;;;;;16.80;45.19;99742.19;5095751;28;1979;-43
2023/11/05 00:09:34;;;;;;;;;;;;;;;17.85;47.08;99754.56;5096585;28;1121;-43
2023/11/05 00:11:59;;;;;;;;;;;;;;;17.17;47.36;99752.28;5087608;28;944;-45
2023/11/05 00:14:25;;;;;;;;;;;;;;;16.91;46.51;99747.25;5096768;28;1073;-40
2023/11/05 00:16:51;;;;;;;;;;;;;;;17.51;47.29;99753.84;5097443;28;1130;-43
2023/11/05 00:19:16;;;;;;;;;;;;;;;17.35;47.93;99752.50;5095072;28;2310;-44
2023/11/05 00:21:44;;;;;;;;;;;;;;;17.03;47.08;99757.75;5075992;28;1267;-42
2023/11/05 00:24:09;;;;;;;;;;;;;;;16.91;45.94;99754.66;5078861;28;1148;-42
2023/11/05 00:26:35;;;;;;;;;;;;;;;16.81;45.71;99760.31;5087690;28;1968;-45
2023/11/05 00:29:00;;;;;;;;;;;;;;;17.44;47.19;99762.50;5092601;28;1220;-42
2023/11/05 00:31:26;;;;;;;;;;;;;;;17.17;47.58;99757.78;5076474;28;1063;-41
2023/11/05 00:33:51;;;;;;;;;;;;;;;16.94;46.61;99770.53;5090376;28;1031;-42
2023/11/05 00:36:17;;;;;;;;;;;;;;;16.76;46.01;99774.94;5096549;28;1006;-42
2023/11/05 00:38:42;;;;;;;;;;;;;;;16.75;45.17;99773.31;5092690;28;1051;-43
2023/11/05 00:41:08;;;;;;;;;;;;;;;16.62;45.03;99774.88;5087119;28;1106;-43
2023/11/05 00:43:34;;;;;;;;;;;;;;;17.29;46.20;99776.50;5083069;28;1075;-43
2023/11/05 00:45:59;;;;;;;;;;;;;;;17.34;47.75;99783.88;5096326;28;1981;-44
2023/11/05 00:48:25;;;;;;;;;;;;;;;16.96;46.95;99792.19;5079612;28;1475;-42
2023/11/05 00:50:51;;;;;;;;;;;;;;;16.76;46.18;99789.47;5076040;28;2633;-42
2023/11/05 00:53:16;;;;;;;;;;;;;;;16.96;45.85;99787.53;5092577;28;1044;-40
2023/11/05 00:55:42;;;;;;;;;;;;;;;17.79;47.63;99790.44;5078047;28;2295;-43
2023/11/05 00:58:07;;;;;;;;;;;;;;;17.20;47.49;99784.66;5081327;28;1070;-42
2023/11/05 01:00:33;;;;;;;;;;;;;;;16.91;46.92;99785.69;5085558;28;1002;-40
2023/11/05 01:02:58;;;;;;;;;;;;;;;16.80;46.13;99791.63;5093954;28;1089;-43
2023/11/05 01:05:24;;;;;;;;;;;;;;;16.78;45.50;99789.16;5075815;28;1007;-43
2023/11/05 01:07:49;;;;;;;;;;;;;;;17.27;46.72;99782.31;5078465;28;1909;-44
2023/11/05 01:10:15;;;;;;;;;;;;;;;17.16;47.61;99788.31;5094842;28;1169;-40
2023/11/05 01:12:41;;;;;;;;;;;;;;;16.99;46.76;99789.69;5091895;28;1042;-43
2023/11/05 01:15:06;;;;;;;;;;;;;;;16.75;46.08;99801.56;5096660;28;1094;-43
2023/11/05 01:17:32;;;;;;;;;;;;;;;17.16;46.74;99815.78;5077729;28;1122;-43
2023/11/05 01:19:57;;;;;;;;;;;;;;;17.24;47.59;99812.34;5077723;28;1796;-44
2023/11/05 01:22:23;;;;;;;;;;;;;;;17.01;46.70;99825.91;5093666;28;1109;-42
2023/11/05 01:24:48;;;;;;;;;;;;;;;16.79;46.10;99825.66;5084656;28;1022;-40
2023/11/05 01:27:14;;;;;;;;;;;;;;;17.57;46.92;99821.38;5093405;28;1917;-40
2023/11/05 01:29:40;;;;;;;;;;;;;;;17.30;48.16;99822.13;5057456;28;1062;-42
2023/11/05 01:32:07;;;;;;;;;;;;;;;16.95;46.98;99824.34;5091679;28;999;-45
2023/11/05 01:34:33;;;;;;;;;;;;;;;16.80;46.13;99814.38;5093487;28;1108;-46
2023/11/05 01:36:58;;;;;;;;;;;;;;;17.13;46.54;99817.19;5091585;28;1162;-45
2023/11/05 01:39:25;;;;;;;;;;;;;;;17.56;47.82;99819.72;5095810;28;1077;-41
2023/11/05 01:41:50;;;;;;;;;;;;;;;17.10;47.29;99828.78;5079456;28;1165;-43
2023/11/05 01:44:16;;;;;;;;;;;;;;;16.98;46.21;99834.72;5085468;28;1023;-42
2023/11/05 01:46:42;;;;;;;;;;;;;;;16.77;45.54;99824.06;5079143;28;1905;-44
2023/11/05 01:49:09;;;;;;;;;;;;;;;16.69;44.79;99830.22;5084961;28;1876;-40
2023/11/05 01:51:34;;;;;;;;;;;;;;;17.77;47.19;99841.34;5074224;28;1051;-41
2023/11/05 01:54:00;;;;;;;;;;;;;;;17.35;47.87;99833.03;5041009;28;1733;-42
2023/11/05 01:56:27;;;;;;;;;;;;;;;16.98;47.12;99837.47;5091996;28;1086;-43
2023/11/05 01:58:52;;;;;;;;;;;;;;;16.80;46.12;99832.78;5071212;28;1118;-43
2023/11/05 02:01:18;;;;;;;;;;;;;;;16.76;45.20;99849.06;5096198;28;1102;-46
2023/11/05 02:03:43;;;;;;;;;;;;;;;16.73;44.60;99844.97;5061885;28;1620;-45
2023/11/05 02:06:12;;;;;;;;;;;;;;;17.23;46.45;99840.94;5058428;28;1910;-41
2023/11/05 02:08:38;;;;;;;;;;;;;;;17.09;47.55;99849.91;5071049;28;1101;-41
2023/11/05 02:11:04;;;;;;;;;;;;;;;16.81;46.78;99843.47;5064176;28;1067;-41
2023/11/05 02:13:45;;;;;;;;;;;;;;;18.01;47.78;99854.13;5071749;28;1007;-40
2023/11/05 02:16:11;;;;;;;;;;;;;;;17.13;48.03;99857.59;5092773;28;1145;-41
2023/11/05 02:18:36;;;;;;;;;;;;;;;16.98;46.64;99853.94;5091145;28;1051;-42
2023/11/05 02:21:03;;;;;;;;;;;;;;;16.84;45.63;99858.53;5070007;28;2336;-41
2023/11/05 02:23:29;;;;;;;;;;;;;;;16.91;45.95;99859.00;5081263;28;1019;-44
2023/11/05 02:25:56;;;;;;;;;;;;;;;17.39;47.39;99867.03;5085221;28;1136;-43
2023/11/05 02:28:22;;;;;;;;;;;;;;;16.99;46.66;99872.06;5080837;28;1983;-42
2023/11/05 02:30:49;;;;;;;;;;;;;;;16.86;45.82;99881.84;5067224;28;1199;-41
2023/11/05 02:33:15;;;;;;;;;;;;;;;17.20;46.53;99877.25;5081314;28;1344;-45
2023/11/05 02:35:41;;;;;;;;;;;;;;;17.62;47.99;99880.91;5087604;28;1101;-44
2023/11/05 02:38:06;;;;;;;;;;;;;;;17.22;47.34;99875.00;5098664;28;1014;-43
2023/11/05 02:40:32;;;;;;;;;;;;;;;16.96;46.51;99889.16;5098573;28;1026;-41
2023/11/05 02:42:57;;;;;;;;;;;;;;;16.85;45.80;99879.41;5068896;28;987;-44
2023/11/05 02:45:23;;;;;;;;;;;;;;;16.75;45.12;99883.13;5083703;28;1000;-42
2023/11/05 02:47:48;;;;;;;;;;;;;;;16.66;44.77;99868.41;5098073;28;1905;-42
2023/11/05 02:50:14;;;;;;;;;;;;;;;17.88;47.13;99881.28;5085360;28;2534;-43
2023/11/05 02:52:40;;;;;;;;;;;;;;;17.22;47.48;99891.47;5086745;28;1081;-44
2023/11/05 02:55:06;;;;;;;;;;;;;;;16.90;46.98;99890.31;5091800;28;1070;-45
2023/11/05 02:57:31;;;;;;;;;;;;;;;16.84;45.83;99886.00;5090682;28;1084;-46
2023/11/05 02:59:57;;;;;;;;;;;;;;;17.18;46.33;99874.81;5087303;28;1014;-41
2023/11/05 03:02:22;;;;;;;;;;;;;;;17.44;47.66;99875.16;5086595;28;1116;-42
2023/11/05 03:04:48;;;;;;;;;;;;;;;17.06;46.83;99872.50;5078704;28;1067;-42
2023/11/05 03:07:14;;;;;;;;;;;;;;;16.82;46.03;99883.56;5098203;28;1981;-41
2023/11/05 03:09:40;;;;;;;;;;;;;;;18.05;47.38;99879.91;5085059;28;1081;-42
2023/11/05 03:12:06;;;;;;;;;;;;;;;17.25;47.86;99886.22;5070723;28;2054;-44
2023/11/05 03:14:31;;;;;;;;;;;;;;;17.01;46.98;99897.31;5096491;28;1074;-43
2023/11/05 03:16:57;;;;;;;;;;;;;;;16.84;46.19;99892.28;5068453;28;1014;-41
2023/11/05 03:19:22;;;;;;;;;;;;;;;16.88;45.20;99884.28;5082781;28;1804;-41
2023/11/05 03:21:48;;;;;;;;;;;;;;;16.58;45.07;99880.88;5098395;28;1101;-43
2023/11/05 03:24:13;;;;;;;;;;;;;;;16.65;44.63;99888.72;5088112;28;1073;-40
2023/11/05 03:26:39;;;;;;;;;;;;;;;17.66;46.76;99895.69;5087078;28;1914;-45
2023/11/05 03:29:05;;;;;;;;;;;;;;;16.97;47.28;99893.53;5059878;28;1443;-41
2023/11/05 03:31:31;;;;;;;;;;;;;;;16.74;46.47;99890.50;5089271;28;1162;-41
2023/11/05 03:33:57;;;;;;;;;;;;;;;16.91;46.25;99889.22;5079535;28;1010;-42
2023/11/05 03:36:22;;;;;;;;;;;;;;;17.81;47.39;99889.13;5088843;28;1118;-41
2023/11/05 03:38:48;;;;;;;;;;;;;;;17.06;47.48;99897.22;5061868;28;1216;-44
2023/11/05 03:41:13;;;;;;;;;;;;;;;16.97;46.47;99878.97;5088586;28;1042;-43
2023/11/05 03:43:39;;;;;;;;;;;;;;;16.74;45.83;99889.69;5078933;28;1082;-47
2023/11/05 03:46:04;;;;;;;;;;;;;;;17.51;46.85;99884.97;5079576;28;1905;-43
2023/11/05 03:48:30;;;;;;;;;;;;;;;17.00;46.89;99884.69;5083452;28;1073;-45
2023/11/05 03:50:56;;;;;;;;;;;;;;;16.81;46.12;99886.59;5082607;28;2494;-44
2023/11/05 03:53:21;;;;;;;;;;;;;;;17.62;47.38;99884.47;5081326;28;1090;-43
2023/11/05 03:55:47;;;;;;;;;;;;;;;17.22;47.73;99877.75;5097681;28;1011;-46
2023/11/05 03:58:13;;;;;;;;;;;;;;;17.07;46.59;99885.13;5097323;28;995;-44
2023/11/05 04:00:39;;;;;;;;;;;;;;;16.98;45.38;99891.59;5087108;28;1132;-44
2023/11/05 04:03:05;;;;;;;;;;;;;;;16.89;45.32;99885.97;5094754;28;1143;-44
2023/11/05 04:05:30;;;;;;;;;;;;;;;17.69;47.32;99899.78;5097362;28;1173;-43
2023/11/05 04:07:56;;;;;;;;;;;;;;;17.06;47.07;99883.50;5079671;28;1984;-40
2023/11/05 04:10:21;;;;;;;;;;;;;;;16.89;46.20;99883.22;5087183;28;1126;-40
2023/11/05 04:12:47;;;;;;;;;;;;;;;17.02;46.22;99882.44;5090079;28;1157;-45
2023/11/05 04:15:12;;;;;;;;;;;;;;;17.34;47.43;99880.03;5097276;28;1135;-44
2023/11/05 04:17:38;;;;;;;;;;;;;;;17.04;46.95;99874.75;5092875;28;1038;-44
2023/11/05 04:20:07;;;;;;;;;;;;;;;16.82;46.01;99880.81;5079091;28;1822;-44
2023/11/05 04:22:33;;;;;;;;;;;;;;;16.70;45.18;99886.72;5077218;28;1102;-40
2023/11/05 04:24:59;;;;;;;;;;;;;;;16.80;45.56;99887.69;5076772;28;891;-45
2023/11/05 04:27:24;;;;;;;;;;;;;;;17.16;47.17;99898.19;5080111;28;1977;-43
2023/11/05 04:29:50;;;;;;;;;;;;;;;16.90;46.55;99891.16;5096887;28;1444;-42
2023/11/05 04:32:15;;;;;;;;;;;;;;;16.72;45.79;99887.25;5083453;28;1202;-44
2023/11/05 04:34:41;;;;;;;;;;;;;;;17.49;46.46;99887.19;5096729;28;1125;-43
2023/11/05 04:37:07;;;;;;;;;;;;;;;17.50;47.45;99888.81;5082909;28;1203;-42
2023/11/05 04:39:32;;;;;;;;;;;;;;;17.03;46.82;99888.78;5086630;28;1054;-42
2023/11/05 04:41:58;;;;;;;;;;;;;;;16.92;45.77;99893.59;5093145;28;1182;-46
2023/11/05 04:44:23;;;;;;;;;;;;;;;16.69;45.49;99896.09;5096984;28;1085;-43
2023/11/05 04:46:49;;;;;;;;;;;;;;;17.78;46.80;99896.03;5093267;28;1901;-41
2023/11/05 04:49:14;;;;;;;;;;;;;;;17.14;47.15;99898.50;5083088;28;2426;-49
2023/11/05 04:51:40;;;;;;;;;;;;;;;16.83;46.51;99901.66;5076328;28;1046;-44
2023/11/05 04:54:06;;;;;;;;;;;;;;;17.90;47.28;99891.97;5079298;28;1048;-48
2023/11/05 04:56:31;;;;;;;;;;;;;;;17.27;47.51;99888.66;5096251;28;1124;-46
2023/11/05 04:58:57;;;;;;;;;;;;;;;16.92;46.75;99888.09;5092575;28;1031;-45
2023/11/05 05:01:22;;;;;;;;;;;;;;;16.97;46.48;99899.03;5077304;28;888;-43
2023/11/05 05:03:48;;;;;;;;;;;;;;;17.74;47.77;99903.25;5075508;28;1027;-44
2023/11/05 05:06:13;;;;;;;;;;;;;;;17.21;47.54;99906.34;5083321;28;1901;-43
2023/11/05 05:08:39;;;;;;;;;;;;;;;16.95;46.82;99914.97;5085439;28;1098;-41
2023/11/05 05:11:05;;;;;;;;;;;;;;;16.90;45.78;99912.28;5095488;28;1178;-43
2023/11/05 05:13:30;;;;;;;;;;;;;;;16.79;45.11;99921.75;5086043;28;1131;-42
2023/11/05 05:15:56;;;;;;;;;;;;;;;17.42;46.51;99913.16;5075881;28;1014;-39
2023/11/05 05:18:21;;;;;;;;;;;;;;;17.32;47.43;99907.81;5075756;28;1030;-40
2023/11/05 05:20:47;;;;;;;;;;;;;;;17.04;46.54;99928.84;5075632;28;1828;-42
2023/11/05 05:23:12;;;;;;;;;;;;;;;16.85;45.87;99932.38;5091113;28;959;-39
2023/11/05 05:25:38;;;;;;;;;;;;;;;16.76;45.12;99932.22;5084511;28;1147;-40
2023/11/05 05:28:03;;;;;;;;;;;;;;;17.33;46.67;99936.91;5096056;28;1985;-38
2023/11/05 05:30:29;;;;;;;;;;;;;;;17.30;47.49;99940.25;5095738;28;1039;-45
2023/11/05 05:32:54;;;;;;;;;;;;;;;18.04;46.40;99947.03;5086861;28;1010;-42
2023/11/05 05:35:20;;;;;;;;;;;;;;;17.45;47.69;99953.75;5091018;28;1155;-43
2023/11/05 05:37:45;;;;;;;;;;;;;;;17.16;48.72;99955.88;5082360;28;941;-46
2023/11/05 05:40:11;;;;;;;;;;;;;;;16.91;49.41;99952.38;5078152;28;1197;-43
2023/11/05 05:42:37;;;;;;;;;;;;;;;16.78;49.64;99942.91;5092311;28;1315;-45
2023/11/05 05:45:03;;;;;;;;;;;;;;;16.64;50.15;99959.28;5093101;28;1089;-40
2023/11/05 05:47:28;;;;;;;;;;;;;;;16.51;50.42;99952.59;5089031;28;1921;-40
2023/11/05 05:49:54;;;;;;;;;;;;;;;16.43;50.85;99948.56;5081304;28;2236;-44
2023/11/05 05:52:19;;;;;;;;;;;;;;;16.32;51.03;99957.19;5075602;28;1062;-44
2023/11/05 05:54:45;;;;;;;;;;;;;;;16.22;51.32;99952.66;5087906;28;1219;-43
2023/11/05 05:57:11;;;;;;;;;;;;;;;17.33;48.99;99955.34;5095592;28;1058;-44
2023/11/05 05:59:37;;;;;;;;;;;;;;;16.66;50.62;99954.34;5083075;28;1165;-43
2023/11/05 06:02:05;;;;;;;;;;;;;;;16.45;51.30;99948.25;5085736;28;1133;-44
2023/11/05 06:04:30;;;;;;;;;;;;;;;16.25;51.62;99943.84;5083046;28;1065;-41
2023/11/05 06:06:56;;;;;;;;;;;;;;;16.22;51.94;99941.69;5076982;28;1965;-44
2023/11/05 06:09:22;;;;;;;;;;;;;;;17.56;49.04;99939.88;5095714;28;1142;-43
2023/11/05 06:11:48;;;;;;;;;;;;;;;16.77;50.99;99941.28;5086247;28;1125;-43
2023/11/05 06:14:14;;;;;;;;;;;;;;;16.51;51.65;99954.50;5076021;28;1214;-42
2023/11/05 06:16:39;;;;;;;;;;;;;;;16.36;52.09;99945.34;5075347;28;948;-46
2023/11/05 06:19:05;;;;;;;;;;;;;;;17.15;50.61;99937.75;5075370;28;1059;-46
2023/11/05 06:21:30;;;;;;;;;;;;;;;17.02;50.69;99945.63;5075200;28;2730;-46
2023/11/05 06:23:56;;;;;;;;;;;;;;;16.62;51.80;99941.47;5091047;28;1038;-42
2023/11/05 06:26:24;;;;;;;;;;;;;;;16.45;52.21;99950.19;5088495;28;1914;-42
2023/11/05 06:28:49;;;;;;;;;;;;;;;17.37;50.07;99954.44;5092465;28;1039;-45
2023/11/05 06:31:16;;;;;;;;;;;;;;;16.80;51.67;99943.41;5075390;28;1011;-39
2023/11/05 06:33:41;;;;;;;;;;;;;;;16.49;52.14;99946.56;5088477;28;1068;-41
2023/11/05 06:36:07;;;;;;;;;;;;;;;16.65;52.30;99952.69;5083946;28;1087;-45
2023/11/05 06:38:33;;;;;;;;;;;;;;;17.37;50.35;99959.13;5079225;28;865;-42
2023/11/05 06:40:58;;;;;;;;;;;;;;;16.76;51.91;99962.44;5085113;28;1083;-42
2023/11/05 06:43:24;;;;;;;;;;;;;;;16.50;52.47;99963.84;5082624;28;1073;-45
2023/11/05 06:45:49;;;;;;;;;;;;;;;16.38;52.82;99967.84;5087679;28;1110;-42
2023/11/05 06:48:15;;;;;;;;;;;;;;;17.57;50.45;99955.22;5085378;28;1909;-41
2023/11/05 06:50:41;;;;;;;;;;;;;;;17.15;51.28;99956.97;5073051;28;1838;-41
2023/11/05 06:53:06;;;;;;;;;;;;;;;16.76;52.32;99956.13;5098026;28;1106;-40
2023/11/05 06:55:32;;;;;;;;;;;;;;;16.55;52.82;99967.34;5098814;28;1126;-42
2023/11/05 06:57:57;;;;;;;;;;;;;;;16.41;53.01;99967.25;5084818;28;1026;-42
2023/11/05 07:00:23;;;;;;;;;;;;;;;16.32;52.90;99957.19;5098427;28;1101;-43
2023/11/05 07:02:50;;;;;;;;;;;;;;;17.07;52.03;99962.03;5082995;28;1016;-43
2023/11/05 07:05:16;;;;;;;;;;;;;;;17.34;51.02;99966.03;5098979;28;1121;-39
2023/11/05 07:07:41;;;;;;;;;;;;;;;16.79;52.66;99965.69;5084970;28;1992;-44
2023/11/05 07:10:08;;;;;;;;;;;;;;;16.56;52.96;99963.50;5090024;28;1022;-42
2023/11/05 07:12:33;;;;;;;;;;;;;;;16.45;53.15;99970.22;5091903;28;1083;-45
2023/11/05 07:14:59;;;;;;;;;;;;;;;16.36;53.13;99975.53;5095862;28;844;-42
2023/11/05 07:17:24;;;;;;;;;;;;;;;16.24;53.30;99980.59;5084527;28;979;-44
2023/11/05 07:19:50;;;;;;;;;;;;;;;17.20;51.94;99971.47;5090902;28;1828;-44
2023/11/05 07:22:16;;;;;;;;;;;;;;;16.85;52.58;99970.00;5079148;28;1619;-45
2023/11/05 07:24:41;;;;;;;;;;;;;;;16.52;53.49;99973.44;5091346;28;1124;-40
2023/11/05 07:27:07;;;;;;;;;;;;;;;17.11;52.34;99973.25;5081206;28;1982;-46
2023/11/05 07:29:32;;;;;;;;;;;;;;;17.03;52.49;99965.69;5078643;28;991;-42
2023/11/05 07:31:58;;;;;;;;;;;;;;;16.73;53.20;99968.50;5093337;28;1226;-41
2023/11/05 07:34:24;;;;;;;;;;;;;;;16.51;53.50;99968.22;5094464;28;1521;-46
2023/11/05 07:36:50;;;;;;;;;;;;;;;17.26;51.96;99969.44;5098268;28;1038;-47
2023/11/05 07:39:15;;;;;;;;;;;;;;;16.77;53.32;99974.22;5083471;28;828;-42
2023/11/05 07:41:41;;;;;;;;;;;;;;;16.56;53.50;99957.19;5087557;28;1100;-43
2023/11/05 07:44:06;;;;;;;;;;;;;;;16.41;53.72;99950.78;5081417;28;1022;-46
2023/11/05 07:46:33;;;;;;;;;;;;;;;16.34;53.57;99942.09;5097787;28;1913;-42
2023/11/05 07:48:59;;;;;;;;;;;;;;;16.57;53.88;99926.69;5084570;28;1143;-43
2023/11/05 07:51:24;;;;;;;;;;;;;;;17.20;52.61;99930.25;5097151;28;2561;-44
2023/11/05 07:53:50;;;;;;;;;;;;;;;16.64;53.71;99929.09;5096378;28;1132;-42
2023/11/05 07:56:18;;;;;;;;;;;;;;;16.45;54.02;99922.75;5087783;28;1126;-42
2023/11/05 07:58:44;;;;;;;;;;;;;;;16.31;54.24;99928.94;5081967;28;992;-42
2023/11/05 08:01:11;;;;;;;;;;;;;;;16.24;54.22;99936.69;5086728;28;1130;-43
2023/11/05 08:03:40;;;;;;;;;;;;;;;17.49;52.33;99933.91;5079124;28;887;-42
2023/11/05 08:06:05;;;;;;;;;;;;;;;16.81;53.92;99930.53;5078964;28;1014;-41
2023/11/05 08:08:31;;;;;;;;;;;;;;;16.54;54.40;99910.81;5097742;28;1980;-44
2023/11/05 08:10:56;;;;;;;;;;;;;;;16.39;54.33;99928.28;5095810;28;1014;-42
2023/11/05 08:13:22;;;;;;;;;;;;;;;16.31;54.07;99923.44;5085449;28;1117;-42
2023/11/05 08:15:48;;;;;;;;;;;;;;;16.36;54.50;99914.34;5077254;28;1104;-45
2023/11/05 08:18:14;;;;;;;;;;;;;;;17.58;52.14;99912.88;5077349;28;1165;-43
2023/11/05 08:20:40;;;;;;;;;;;;;;;16.83;54.07;99907.16;5090259;28;1958;-44
2023/11/05 08:23:05;;;;;;;;;;;;;;;16.61;54.27;99899.50;5089268;28;1136;-46
2023/11/05 08:25:31;;;;;;;;;;;;;;;16.42;54.45;99894.81;5091155;28;1086;-40
2023/11/05 08:27:56;;;;;;;;;;;;;;;16.34;54.31;99906.44;5097070;28;1970;-41
2023/11/05 08:30:23;;;;;;;;;;;;;;;16.53;54.47;99902.91;5077321;28;1170;-40
2023/11/05 08:32:52;;;;;;;;;;;;;;;17.72;52.02;99905.47;5085723;28;1059;-41
2023/11/05 08:35:18;;;;;;;;;;;;;;;16.93;54.11;99907.03;5096855;28;1054;-43
2023/11/05 08:37:45;;;;;;;;;;;;;;;16.64;54.59;99901.63;5096833;28;1019;-42
2023/11/05 08:40:13;;;;;;;;;;;;;;;16.48;54.60;99881.84;5083170;28;1098;-44
2023/11/05 08:42:39;;;;;;;;;;;;;;;17.05;54.11;99881.84;5087292;28;1112;-44
2023/11/05 08:45:06;;;;;;;;;;;;;;;17.27;53.26;99888.66;5090130;28;1116;-40
2023/11/05 08:47:32;;;;;;;;;;;;;;;16.60;54.31;99849.25;5076796;28;1975;-44
2023/11/05 08:49:57;;;;;;;;;;;;;;;16.57;54.44;99877.31;5089231;28;2402;-42
2023/11/05 08:52:23;;;;;;;;;;;;;;;16.45;54.67;99890.63;5096473;28;1291;-41
2023/11/05 08:54:48;;;;;;;;;;;;;;;16.39;54.46;99898.09;5083505;28;1053;-45
2023/11/05 08:57:14;;;;;;;;;;;;;;;16.25;54.63;99899.94;5090484;28;1004;-41
2023/11/05 08:59:42;;;;;;;;;;;;;;;16.96;54.26;99878.16;5089388;28;1031;-40
2023/11/05 09:02:09;;;;;;;;;;;;;;;16.98;54.38;99881.41;5096315;28;1102;-43
2023/11/05 09:04:35;;;;;;;;;;;;;;;16.57;54.81;99881.97;5082852;28;1157;-44
2023/11/05 09:07:01;;;;;;;;;;;;;;;16.43;54.99;99882.69;5086928;28;1914;-45
2023/11/05 09:09:27;;;;;;;;;;;;;;;16.39;54.87;99875.34;5079192;28;1066;-43
2023/11/05 09:11:52;;;;;;;;;;;;;;;17.05;54.20;99870.84;5087076;28;1034;-43
2023/11/05 09:14:18;;;;;;;;;;;;;;;17.28;53.85;99874.63;5090774;28;1149;-41
2023/11/05 09:16:43;;;;;;;;;;;;;;;16.77;54.75;99858.91;5087032;28;1320;-43
2023/11/05 09:19:09;;;;;;;;;;;;;;;16.53;55.04;99843.31;5088465;28;2475;-42
2023/11/05 09:21:35;;;;;;;;;;;;;;;16.44;54.87;99839.63;5095406;28;1082;-41
2023/11/05 09:24:00;;;;;;;;;;;;;;;16.81;54.95;99829.75;5083811;28;1034;-40
2023/11/05 09:26:26;;;;;;;;;;;;;;;17.28;53.90;99816.13;5080212;28;1905;-42
2023/11/05 09:28:51;;;;;;;;;;;;;;;16.81;54.67;99826.19;5083392;28;1098;-43
2023/11/05 09:31:17;;;;;;;;;;;;;;;16.57;54.95;99830.63;5091176;28;1149;-44
2023/11/05 09:33:43;;;;;;;;;;;;;;;16.47;55.11;99817.06;5091732;28;1092;-45
2023/11/05 09:36:08;;;;;;;;;;;;;;;17.30;54.29;99813.06;5095802;28;1062;-41
2023/11/05 09:38:34;;;;;;;;;;;;;;;17.29;54.09;99812.22;5091315;28;1046;-41
2023/11/05 09:40:59;;;;;;;;;;;;;;;16.87;54.77;99806.59;5089636;28;1186;-40
2023/11/05 09:43:25;;;;;;;;;;;;;;;16.72;54.93;99793.94;5084093;28;1177;-43
2023/11/05 09:45:52;;;;;;;;;;;;;;;16.55;54.85;99779.91;5093839;28;1095;-42
2023/11/05 09:48:17;;;;;;;;;;;;;;;16.46;54.72;99776.22;5084451;28;1913;-39
2023/11/05 09:50:43;;;;;;;;;;;;;;;16.36;54.84;99767.00;5091795;28;2265;-44
2023/11/05 09:53:12;;;;;;;;;;;;;;;16.33;54.52;99750.34;5089175;28;1362;-42
2023/11/05 09:55:41;;;;;;;;;;;;;;;17.50;53.93;99741.25;5091608;28;1375;-42
2023/11/05 09:58:07;;;;;;;;;;;;;;;17.08;54.54;99734.88;5083631;28;1063;-42
2023/11/05 10:00:32;;;;;;;;;;;;;;;16.81;55.02;99738.34;5075957;28;1066;-43
2023/11/05 10:03:11;;;;;;;;;;;;;;;16.64;55.04;99739.69;5082867;28;1117;-44
2023/11/05 10:05:40;;;;;;;;;;;;;;;16.92;55.05;99726.09;5075871;28;984;-41
2023/11/05 10:08:06;;;;;;;;;;;;;;;17.49;53.67;99720.38;5094056;28;1913;-41
2023/11/05 10:10:32;;;;;;;;;;;;;;;16.94;54.77;99723.84;5090707;28;1283;-44
2023/11/05 10:12:58;;;;;;;;;;;;;;;16.75;55.14;99729.38;5075627;28;1057;-43
2023/11/05 10:15:24;;;;;;;;;;;;;;;16.62;55.01;99722.72;5079352;28;1019;-42
2023/11/05 10:17:50;;;;;;;;;;;;;;;16.50;55.02;99694.94;5090437;28;1124;-41
2023/11/05 10:20:16;;;;;;;;;;;;;;;16.40;55.00;99691.22;5090682;28;1831;-41
2023/11/05 10:22:45;;;;;;;;;;;;;;;16.35;54.87;99694.03;5091482;28;1199;-41
2023/11/05 10:25:36;;;;;;;;;;;;;;;16.43;55.35;99687.88;5093727;28;1078;-45
2023/11/05 10:28:03;;;;;;;;;;;;;;;17.25;54.71;99676.59;5087186;28;1937;-40
2023/11/05 10:30:31;;;;;;;;;;;;;;;16.75;55.24;99668.97;5088764;28;1101;-43
2023/11/05 10:32:56;;;;;;;;;;;;;;;16.58;55.24;99658.56;5096397;28;1074;-45
2023/11/05 10:35:27;;;;;;;;;;;;;;;16.48;55.34;99664.22;5088452;28;1212;-42
2023/11/05 10:37:53;;;;;;;;;;;;;;;16.99;55.14;99657.06;5085583;28;1102;-42
2023/11/05 10:40:19;;;;;;;;;;;;;;;17.33;54.32;99640.16;5083958;28;843;-43
2023/11/05 10:42:44;;;;;;;;;;;;;;;16.86;55.16;99636.69;5092423;28;1119;-40
2023/11/05 10:45:12;;;;;;;;;;;;;;;16.66;55.53;99629.59;5089260;28;1039;-39
2023/11/05 10:47:37;;;;;;;;;;;;;;;16.55;55.20;99612.50;5085527;28;1886;-40
2023/11/05 10:50:19;;;;;;;;;;;;;;;16.46;55.12;99622.56;5088908;28;2400;-42
2023/11/05 10:52:44;;;;;;;;;;;;;;;16.35;55.20;99616.41;5085533;28;1237;-41
2023/11/05 10:55:10;;;;;;;;;;;;;;;16.79;55.53;99603.28;5086371;28;1146;-44
2023/11/05 10:57:43;;;;;;;;;;;;;;;17.28;54.50;99593.56;5098328;28;1011;-43
2023/11/05 11:00:19;;;;;;;;;;;;;;;16.79;55.47;99593.13;5084538;28;1220;-44
2023/11/05 11:02:47;;;;;;;;;;;;;;;16.55;55.55;99588.63;5086584;28;1115;-41
2023/11/05 11:05:13;;;;;;;;;;;;;;;16.46;55.35;99593.19;5078495;28;1038;-45
2023/11/05 11:07:41;;;;;;;;;;;;;;;17.45;54.46;99593.72;5062366;28;1913;-44
2023/11/05 11:10:09;;;;;;;;;;;;;;;16.89;55.33;99595.72;5098794;28;1006;-41
2023/11/05 11:12:35;;;;;;;;;;;;;;;16.71;55.41;99599.34;5083387;28;1172;-43
2023/11/05 11:15:10;;;;;;;;;;;;;;;16.55;55.34;99587.81;5080218;28;1198;-45
2023/11/05 11:17:38;;;;;;;;;;;;;;;16.46;55.25;99584.16;5085176;28;1070;-46
2023/11/05 11:20:10;;;;;;;;;;;;;;;16.57;55.71;99582.84;5087766;28;2447;-40
2023/11/05 11:22:45;;;;;;;;;;;;;;;17.63;54.02;99582.91;5096024;28;1042;-43
2023/11/05 11:25:12;;;;;;;;;;;;;;;16.92;55.21;99577.81;5098410;28;994;-41
2023/11/05 11:27:40;;;;;;;;;;;;;;;16.71;55.36;99561.69;5097629;28;1917;-46
2023/11/05 11:30:07;;;;;;;;;;;;;;;16.52;55.39;99555.47;5085801;28;1098;-44
2023/11/05 11:32:33;;;;;;;;;;;;;;;16.46;55.26;99556.72;5091304;28;1244;-40
2023/11/05 11:34:58;;;;;;;;;;;;;;;16.38;55.18;99561.78;5078165;28;1101;-41
2023/11/05 11:37:24;;;;;;;;;;;;;;;16.31;55.14;99550.34;5079904;28;1008;-42
2023/11/05 11:39:50;;;;;;;;;;;;;;;16.37;55.43;99548.38;5072220;28;1026;-42
2023/11/05 11:42:16;;;;;;;;;;;;;;;17.56;54.35;99552.31;5078339;28;1019;-44
2023/11/05 11:44:42;;;;;;;;;;;;;;;16.92;55.64;99553.91;5078129;28;1125;-42
2023/11/05 11:47:08;;;;;;;;;;;;;;;16.66;55.70;99548.09;5084970;28;1913;-41
2023/11/05 11:49:33;;;;;;;;;;;;;;;16.56;55.60;99540.88;5084507;28;1857;-42
2023/11/05 11:52:02;;;;;;;;;;;;;;;16.46;55.50;99532.00;5096310;28;911;-41
2023/11/05 11:54:30;;;;;;;;;;;;;;;16.37;55.11;99532.72;5079036;28;1250;-42
2023/11/05 11:56:56;;;;;;;;;;;;;;;16.28;55.25;99531.75;5089878;28;1265;-42
2023/11/05 11:59:24;;;;;;;;;;;;;;;16.26;55.21;99525.78;5083778;28;1058;-43
2023/11/05 12:01:50;;;;;;;;;;;;;;;17.54;54.63;99535.28;5097690;28;1114;-40
2023/11/05 12:04:15;;;;;;;;;;;;;;;17.01;55.63;99531.22;5087920;28;1003;-40
2023/11/05 12:06:44;;;;;;;;;;;;;;;16.68;55.84;99536.81;5089580;28;1909;-42
2023/11/05 12:09:25;;;;;;;;;;;;;;;16.55;55.50;99532.91;5083694;28;1133;-46
2023/11/05 12:11:51;;;;;;;;;;;;;;;16.42;55.59;99534.53;5086328;28;1102;-43
2023/11/05 12:14:22;;;;;;;;;;;;;;;17.22;55.54;99528.84;5097471;28;1100;-41
2023/11/05 12:16:48;;;;;;;;;;;;;;;17.31;55.00;99538.00;5084074;28;861;-44
2023/11/05 12:19:14;;;;;;;;;;;;;;;16.89;55.72;99540.78;5090876;28;2253;-41
2023/11/05 12:21:40;;;;;;;;;;;;;;;16.70;55.59;99529.88;5086711;28;1062;-42
2023/11/05 12:24:07;;;;;;;;;;;;;;;16.54;55.56;99521.13;5076435;28;1038;-41
2023/11/05 12:26:32;;;;;;;;;;;;;;;16.48;55.41;99510.56;5086876;28;1905;-40
2023/11/05 12:28:58;;;;;;;;;;;;;;;16.38;55.52;99504.16;5092228;28;1017;-40
2023/11/05 12:31:27;;;;;;;;;;;;;;;16.54;55.85;99514.84;5076886;28;1113;-40
2023/11/05 12:33:54;;;;;;;;;;;;;;;17.54;54.60;99507.81;5093558;28;1007;-43
2023/11/05 12:36:19;;;;;;;;;;;;;;;16.90;55.79;99494.91;5090522;28;1284;-46
2023/11/05 12:38:45;;;;;;;;;;;;;;;16.67;55.95;99508.53;5078418;28;1018;-40
2023/11/05 12:41:10;;;;;;;;;;;;;;;16.53;55.66;99510.47;5085845;28;1082;-40
2023/11/05 12:43:36;;;;;;;;;;;;;;;16.48;55.37;99505.06;5096563;28;1094;-42
2023/11/05 12:46:02;;;;;;;;;;;;;;;16.38;55.54;99504.16;5079475;28;1229;-42
2023/11/05 12:48:28;;;;;;;;;;;;;;;17.38;55.28;99488.94;5076676;28;1985;-43
2023/11/05 12:50:53;;;;;;;;;;;;;;;17.13;55.49;99482.06;5076243;28;2426;-43
2023/11/05 12:53:22;;;;;;;;;;;;;;;16.83;55.80;99483.50;5091421;28;1015;-46